sensor_id;sensor_type;location;lat;lon;timestamp;P1;durP1;ratioP1;P2;durP2;ratioP2
10096;SDS011;5087;42.662;23.466;2023-05-16T00:02:01;0.70;;;0.53;;
10096;SDS011;5087;42.662;23.466;2023-05-16T00:04:30;0.23;;;0.23;;
10096;SDS011;5087;42.662;23.466;2023-05-16T00:06:58;0.70;;;0.70;;
10096;SDS011;5087;42.662;23.466;2023-05-16T00:09:26;0.43;;;0.43;;
10096;SDS011;5087;42.662;23.466;2023-05-16T00:11:53;0.30;;;0.30;;
10096;SDS011;5087;42.662;23.466;2023-05-16T00:14:21;0.73;;;0.63;;
10096;SDS011;5087;42.662;23.466;2023-05-16T00:16:51;0.50;;;0.50;;
10096;SDS011;5087;42.662;23.466;2023-05-16T00:19:19;0.77;;;0.77;;
10096;SDS011;5087;42.662;23.466;2023-05-16T00:21:46;0.23;;;0.23;;
10096;SDS011;5087;42.662;23.466;2023-05-16T00:24:13;0.70;;;0.70;;
10096;SDS011;5087;42.662;23.466;2023-05-16T00:26:42;0.67;;;0.67;;
10096;SDS011;5087;42.662;23.466;2023-05-16T00:29:09;0.30;;;0.30;;
10096;SDS011;5087;42.662;23.466;2023-05-16T00:31:36;0.37;;;0.37;;
10096;SDS011;5087;42.662;23.466;2023-05-16T00:34:04;0.00;;;0.00;;
10096;SDS011;5087;42.662;23.466;2023-05-16T00:36:31;0.50;;;0.20;;
10096;SDS011;5087;42.662;23.466;2023-05-16T00:39:00;0.00;;;0.00;;
10096;SDS011;5087;42.662;23.466;2023-05-16T00:41:27;0.10;;;0.10;;
10096;SDS011;5087;42.662;23.466;2023-05-16T00:43:56;0.00;;;0.00;;
10096;SDS011;5087;42.662;23.466;2023-05-16T00:46:26;1.00;;;1.00;;
10096;SDS011;5087;42.662;23.466;2023-05-16T00:48:56;0.77;;;0.77;;
10096;SDS011;5087;42.662;23.466;2023-05-16T00:51:24;1.13;;;1.13;;
10096;SDS011;5087;42.662;23.466;2023-05-16T00:53:51;0.80;;;0.80;;
10096;SDS011;5087;42.662;23.466;2023-05-16T00:56:23;0.77;;;0.77;;
10096;SDS011;5087;42.662;23.466;2023-05-16T00:58:53;0.27;;;0.27;;
10096;SDS011;5087;42.662;23.466;2023-05-16T01:01:22;0.53;;;0.53;;
10096;SDS011;5087;42.662;23.466;2023-05-16T01:03:51;0.37;;;0.37;;
10096;SDS011;5087;42.662;23.466;2023-05-16T01:06:19;0.73;;;0.73;;
10096;SDS011;5087;42.662;23.466;2023-05-16T01:08:47;0.20;;;0.20;;
10096;SDS011;5087;42.662;23.466;2023-05-16T01:11:17;1.53;;;1.43;;
10096;SDS011;5087;42.662;23.466;2023-05-16T01:13:54;0.30;;;0.30;;
10096;SDS011;5087;42.662;23.466;2023-05-16T01:16:35;0.00;;;0.00;;
10096;SDS011;5087;42.662;23.466;2023-05-16T01:19:07;0.50;;;0.50;;
10096;SDS011;5087;42.662;23.466;2023-05-16T01:21:47;0.53;;;0.53;;
10096;SDS011;5087;42.662;23.466;2023-05-16T01:24:21;0.30;;;0.30;;
10096;SDS011;5087;42.662;23.466;2023-05-16T01:26:54;0.63;;;0.63;;
10096;SDS011;5087;42.662;23.466;2023-05-16T01:29:22;0.30;;;0.30;;
10096;SDS011;5087;42.662;23.466;2023-05-16T01:31:53;1.20;;;1.20;;
10096;SDS011;5087;42.662;23.466;2023-05-16T01:34:20;0.10;;;0.10;;
10096;SDS011;5087;42.662;23.466;2023-05-16T01:36:56;1.07;;;1.07;;
10096;SDS011;5087;42.662;23.466;2023-05-16T01:39:30;0.63;;;0.50;;
10096;SDS011;5087;42.662;23.466;2023-05-16T01:42:04;0.20;;;0.20;;
10096;SDS011;5087;42.662;23.466;2023-05-16T01:44:36;0.60;;;0.60;;
10096;SDS011;5087;42.662;23.466;2023-05-16T01:47:10;0.00;;;0.00;;
10096;SDS011;5087;42.662;23.466;2023-05-16T01:49:40;0.27;;;0.27;;
10096;SDS011;5087;42.662;23.466;2023-05-16T01:52:12;0.10;;;0.10;;
10096;SDS011;5087;42.662;23.466;2023-05-16T01:54:45;0.13;;;0.13;;
10096;SDS011;5087;42.662;23.466;2023-05-16T01:57:16;0.20;;;0.20;;
10096;SDS011;5087;42.662;23.466;2023-05-16T01:59:44;0.10;;;0.00;;
10096;SDS011;5087;42.662;23.466;2023-05-16T02:02:12;0.20;;;0.20;;
10096;SDS011;5087;42.662;23.466;2023-05-16T02:04:39;0.00;;;0.00;;
10096;SDS011;5087;42.662;23.466;2023-05-16T02:07:06;0.10;;;0.10;;
10096;SDS011;5087;42.662;23.466;2023-05-16T02:09:34;0.40;;;0.40;;
10096;SDS011;5087;42.662;23.466;2023-05-16T02:12:01;0.67;;;0.67;;
10096;SDS011;5087;42.662;23.466;2023-05-16T02:14:30;0.30;;;0.30;;
10096;SDS011;5087;42.662;23.466;2023-05-16T02:16:57;0.10;;;0.10;;
10096;SDS011;5087;42.662;23.466;2023-05-16T02:19:24;0.47;;;0.47;;
10096;SDS011;5087;42.662;23.466;2023-05-16T02:21:52;0.60;;;0.60;;
10096;SDS011;5087;42.662;23.466;2023-05-16T02:24:19;0.03;;;0.03;;
10096;SDS011;5087;42.662;23.466;2023-05-16T02:26:46;0.43;;;0.43;;
10096;SDS011;5087;42.662;23.466;2023-05-16T02:29:13;0.10;;;0.10;;
10096;SDS011;5087;42.662;23.466;2023-05-16T02:31:42;0.17;;;0.17;;
10096;SDS011;5087;42.662;23.466;2023-05-16T02:34:11;0.10;;;0.10;;
10096;SDS011;5087;42.662;23.466;2023-05-16T02:36:38;0.10;;;0.10;;
10096;SDS011;5087;42.662;23.466;2023-05-16T02:39:05;1.47;;;1.47;;
10096;SDS011;5087;42.662;23.466;2023-05-16T02:41:34;0.10;;;0.10;;
10096;SDS011;5087;42.662;23.466;2023-05-16T02:44:01;0.50;;;0.50;;
10096;SDS011;5087;42.662;23.466;2023-05-16T02:46:29;0.20;;;0.20;;
10096;SDS011;5087;42.662;23.466;2023-05-16T02:48:58;0.10;;;0.10;;
10096;SDS011;5087;42.662;23.466;2023-05-16T02:51:26;0.57;;;0.57;;
10096;SDS011;5087;42.662;23.466;2023-05-16T02:53:54;0.10;;;0.10;;
10096;SDS011;5087;42.662;23.466;2023-05-16T02:56:23;0.10;;;0.10;;
10096;SDS011;5087;42.662;23.466;2023-05-16T02:58:52;0.13;;;0.13;;
10096;SDS011;5087;42.662;23.466;2023-05-16T03:01:19;0.20;;;0.20;;
10096;SDS011;5087;42.662;23.466;2023-05-16T03:03:47;0.53;;;0.53;;
10096;SDS011;5087;42.662;23.466;2023-05-16T03:06:15;0.10;;;0.10;;
10096;SDS011;5087;42.662;23.466;2023-05-16T03:08:42;0.10;;;0.10;;
10096;SDS011;5087;42.662;23.466;2023-05-16T03:11:09;0.30;;;0.30;;
10096;SDS011;5087;42.662;23.466;2023-05-16T03:13:39;0.10;;;0.10;;
10096;SDS011;5087;42.662;23.466;2023-05-16T03:16:07;2.63;;;1.00;;
10096;SDS011;5087;42.662;23.466;2023-05-16T03:18:34;0.00;;;0.00;;
10096;SDS011;5087;42.662;23.466;2023-05-16T03:21:01;0.30;;;0.30;;
10096;SDS011;5087;42.662;23.466;2023-05-16T03:23:30;1.30;;;1.30;;
10096;SDS011;5087;42.662;23.466;2023-05-16T03:25:57;0.20;;;0.20;;
10096;SDS011;5087;42.662;23.466;2023-05-16T03:28:25;3.30;;;3.10;;
10096;SDS011;5087;42.662;23.466;2023-05-16T03:30:53;0.20;;;0.20;;
10096;SDS011;5087;42.662;23.466;2023-05-16T03:33:20;0.87;;;0.87;;
10096;SDS011;5087;42.662;23.466;2023-05-16T03:35:48;0.83;;;0.77;;
10096;SDS011;5087;42.662;23.466;2023-05-16T03:38:16;0.33;;;0.33;;
10096;SDS011;5087;42.662;23.466;2023-05-16T03:40:45;0.53;;;0.37;;
10096;SDS011;5087;42.662;23.466;2023-05-16T03:43:12;0.00;;;0.00;;
10096;SDS011;5087;42.662;23.466;2023-05-16T03:45:42;0.00;;;0.00;;
10096;SDS011;5087;42.662;23.466;2023-05-16T03:48:10;0.30;;;0.30;;
10096;SDS011;5087;42.662;23.466;2023-05-16T03:50:37;0.43;;;0.43;;
10096;SDS011;5087;42.662;23.466;2023-05-16T03:53:06;0.33;;;0.33;;
10096;SDS011;5087;42.662;23.466;2023-05-16T03:55:37;0.47;;;0.47;;
10096;SDS011;5087;42.662;23.466;2023-05-16T03:58:06;0.20;;;0.20;;
10096;SDS011;5087;42.662;23.466;2023-05-16T04:00:33;0.77;;;0.77;;
10096;SDS011;5087;42.662;23.466;2023-05-16T04:03:01;0.10;;;0.10;;
10096;SDS011;5087;42.662;23.466;2023-05-16T04:05:28;1.77;;;1.67;;
10096;SDS011;5087;42.662;23.466;2023-05-16T04:07:55;0.20;;;0.20;;
10096;SDS011;5087;42.662;23.466;2023-05-16T04:10:23;1.00;;;1.00;;
10096;SDS011;5087;42.662;23.466;2023-05-16T04:12:53;0.20;;;0.20;;
10096;SDS011;5087;42.662;23.466;2023-05-16T04:15:22;0.30;;;0.30;;
10096;SDS011;5087;42.662;23.466;2023-05-16T04:17:49;0.47;;;0.47;;
10096;SDS011;5087;42.662;23.466;2023-05-16T04:20:19;1.00;;;0.90;;
10096;SDS011;5087;42.662;23.466;2023-05-16T04:22:46;0.60;;;0.60;;
10096;SDS011;5087;42.662;23.466;2023-05-16T04:25:14;0.20;;;0.20;;
10096;SDS011;5087;42.662;23.466;2023-05-16T04:27:41;0.40;;;0.40;;
10096;SDS011;5087;42.662;23.466;2023-05-16T04:30:09;0.40;;;0.40;;
10096;SDS011;5087;42.662;23.466;2023-05-16T04:32:40;0.10;;;0.10;;
10096;SDS011;5087;42.662;23.466;2023-05-16T04:35:08;1.53;;;1.43;;
10096;SDS011;5087;42.662;23.466;2023-05-16T04:37:35;0.57;;;0.57;;
10096;SDS011;5087;42.662;23.466;2023-05-16T04:40:03;0.40;;;0.40;;
10096;SDS011;5087;42.662;23.466;2023-05-16T04:42:31;0.97;;;0.87;;
10096;SDS011;5087;42.662;23.466;2023-05-16T04:44:59;0.47;;;0.47;;
10096;SDS011;5087;42.662;23.466;2023-05-16T04:47:28;0.30;;;0.30;;
10096;SDS011;5087;42.662;23.466;2023-05-16T04:49:57;0.40;;;0.40;;
10096;SDS011;5087;42.662;23.466;2023-05-16T04:52:24;0.40;;;0.40;;
10096;SDS011;5087;42.662;23.466;2023-05-16T04:54:51;0.30;;;0.30;;
10096;SDS011;5087;42.662;23.466;2023-05-16T04:57:19;0.40;;;0.40;;
10096;SDS011;5087;42.662;23.466;2023-05-16T04:59:46;0.80;;;0.80;;
10096;SDS011;5087;42.662;23.466;2023-05-16T05:02:13;0.97;;;0.80;;
10096;SDS011;5087;42.662;23.466;2023-05-16T05:04:40;1.40;;;1.07;;
10096;SDS011;5087;42.662;23.466;2023-05-16T05:07:09;0.37;;;0.37;;
10096;SDS011;5087;42.662;23.466;2023-05-16T05:09:36;0.90;;;0.90;;
10096;SDS011;5087;42.662;23.466;2023-05-16T05:12:04;0.20;;;0.20;;
10096;SDS011;5087;42.662;23.466;2023-05-16T05:14:32;0.10;;;0.10;;
10096;SDS011;5087;42.662;23.466;2023-05-16T05:16:59;0.30;;;0.30;;
10096;SDS011;5087;42.662;23.466;2023-05-16T05:19:26;1.60;;;1.50;;
10096;SDS011;5087;42.662;23.466;2023-05-16T05:21:53;0.10;;;0.10;;
10096;SDS011;5087;42.662;23.466;2023-05-16T05:24:22;0.40;;;0.40;;
10096;SDS011;5087;42.662;23.466;2023-05-16T05:26:49;1.23;;;1.10;;
10096;SDS011;5087;42.662;23.466;2023-05-16T05:29:17;0.40;;;0.40;;
10096;SDS011;5087;42.662;23.466;2023-05-16T05:31:45;0.73;;;0.73;;
10096;SDS011;5087;42.662;23.466;2023-05-16T05:34:15;1.20;;;1.20;;
10096;SDS011;5087;42.662;23.466;2023-05-16T05:36:42;0.57;;;0.57;;
10096;SDS011;5087;42.662;23.466;2023-05-16T05:39:09;0.63;;;0.63;;
10096;SDS011;5087;42.662;23.466;2023-05-16T05:41:38;0.90;;;0.90;;
10096;SDS011;5087;42.662;23.466;2023-05-16T05:44:05;1.00;;;1.00;;
10096;SDS011;5087;42.662;23.466;2023-05-16T05:46:32;0.77;;;0.77;;
10096;SDS011;5087;42.662;23.466;2023-05-16T05:49:00;0.80;;;0.80;;
10096;SDS011;5087;42.662;23.466;2023-05-16T05:51:28;0.80;;;0.80;;
10096;SDS011;5087;42.662;23.466;2023-05-16T05:53:55;0.70;;;0.70;;
10096;SDS011;5087;42.662;23.466;2023-05-16T05:56:23;0.73;;;0.73;;
10096;SDS011;5087;42.662;23.466;2023-05-16T05:58:55;0.60;;;0.60;;
10096;SDS011;5087;42.662;23.466;2023-05-16T06:01:22;0.20;;;0.20;;
10096;SDS011;5087;42.662;23.466;2023-05-16T06:03:49;0.10;;;0.10;;
10096;SDS011;5087;42.662;23.466;2023-05-16T06:06:20;0.10;;;0.10;;
10096;SDS011;5087;42.662;23.466;2023-05-16T06:08:47;0.00;;;0.00;;
10096;SDS011;5087;42.662;23.466;2023-05-16T06:11:14;0.10;;;0.10;;
10096;SDS011;5087;42.662;23.466;2023-05-16T06:13:41;0.20;;;0.20;;
10096;SDS011;5087;42.662;23.466;2023-05-16T06:16:10;0.10;;;0.10;;
10096;SDS011;5087;42.662;23.466;2023-05-16T06:18:37;1.10;;;1.07;;
10096;SDS011;5087;42.662;23.466;2023-05-16T06:21:05;0.63;;;0.63;;
10096;SDS011;5087;42.662;23.466;2023-05-16T06:23:32;1.07;;;1.07;;
10096;SDS011;5087;42.662;23.466;2023-05-16T06:26:00;0.43;;;0.43;;
10096;SDS011;5087;42.662;23.466;2023-05-16T06:28:27;0.40;;;0.40;;
10096;SDS011;5087;42.662;23.466;2023-05-16T06:30:56;0.10;;;0.10;;
10096;SDS011;5087;42.662;23.466;2023-05-16T06:33:24;0.10;;;0.10;;
10096;SDS011;5087;42.662;23.466;2023-05-16T06:35:52;4.40;;;2.57;;
10096;SDS011;5087;42.662;23.466;2023-05-16T06:38:19;0.20;;;0.20;;
10096;SDS011;5087;42.662;23.466;2023-05-16T06:40:46;0.33;;;0.27;;
10096;SDS011;5087;42.662;23.466;2023-05-16T06:43:14;0.10;;;0.10;;
10096;SDS011;5087;42.662;23.466;2023-05-16T06:45:41;0.10;;;0.10;;
10096;SDS011;5087;42.662;23.466;2023-05-16T06:48:11;0.67;;;0.67;;
10096;SDS011;5087;42.662;23.466;2023-05-16T06:50:40;0.20;;;0.20;;
10096;SDS011;5087;42.662;23.466;2023-05-16T06:53:08;0.10;;;0.10;;
10096;SDS011;5087;42.662;23.466;2023-05-16T06:55:36;0.10;;;0.10;;
10096;SDS011;5087;42.662;23.466;2023-05-16T06:58:03;0.40;;;0.40;;
10096;SDS011;5087;42.662;23.466;2023-05-16T07:00:30;1.77;;;1.77;;
10096;SDS011;5087;42.662;23.466;2023-05-16T07:02:58;1.00;;;1.00;;
10096;SDS011;5087;42.662;23.466;2023-05-16T07:05:25;1.30;;;1.30;;
10096;SDS011;5087;42.662;23.466;2023-05-16T07:07:53;1.20;;;1.20;;
10096;SDS011;5087;42.662;23.466;2023-05-16T07:10:21;1.30;;;1.30;;
10096;SDS011;5087;42.662;23.466;2023-05-16T07:12:48;1.20;;;1.20;;
10096;SDS011;5087;42.662;23.466;2023-05-16T07:15:19;1.30;;;1.30;;
10096;SDS011;5087;42.662;23.466;2023-05-16T07:17:46;1.27;;;1.27;;
10096;SDS011;5087;42.662;23.466;2023-05-16T07:20:15;1.50;;;1.50;;
10096;SDS011;5087;42.662;23.466;2023-05-16T07:22:42;1.57;;;1.57;;
10096;SDS011;5087;42.662;23.466;2023-05-16T07:25:11;1.97;;;1.97;;
10096;SDS011;5087;42.662;23.466;2023-05-16T07:27:39;1.30;;;1.30;;
10096;SDS011;5087;42.662;23.466;2023-05-16T07:30:10;1.50;;;1.50;;
10096;SDS011;5087;42.662;23.466;2023-05-16T07:32:38;1.80;;;1.80;;
10096;SDS011;5087;42.662;23.466;2023-05-16T07:35:07;2.00;;;2.00;;
10096;SDS011;5087;42.662;23.466;2023-05-16T07:37:35;1.50;;;1.50;;
10096;SDS011;5087;42.662;23.466;2023-05-16T07:40:02;2.50;;;2.43;;
10096;SDS011;5087;42.662;23.466;2023-05-16T07:42:31;2.17;;;2.17;;
10096;SDS011;5087;42.662;23.466;2023-05-16T07:44:59;1.70;;;1.70;;
10096;SDS011;5087;42.662;23.466;2023-05-16T07:47:26;2.00;;;2.00;;
10096;SDS011;5087;42.662;23.466;2023-05-16T07:49:53;1.30;;;1.30;;
10096;SDS011;5087;42.662;23.466;2023-05-16T07:52:20;1.10;;;1.10;;
10096;SDS011;5087;42.662;23.466;2023-05-16T07:54:48;1.10;;;1.10;;
10096;SDS011;5087;42.662;23.466;2023-05-16T07:57:15;1.07;;;1.07;;
10096;SDS011;5087;42.662;23.466;2023-05-16T07:59:44;1.10;;;1.10;;
10096;SDS011;5087;42.662;23.466;2023-05-16T08:02:11;1.00;;;1.00;;
10096;SDS011;5087;42.662;23.466;2023-05-16T08:04:38;1.10;;;1.10;;
10096;SDS011;5087;42.662;23.466;2023-05-16T08:07:06;1.10;;;1.10;;
10096;SDS011;5087;42.662;23.466;2023-05-16T08:09:34;1.10;;;1.10;;
10096;SDS011;5087;42.662;23.466;2023-05-16T08:12:01;1.10;;;1.10;;
10096;SDS011;5087;42.662;23.466;2023-05-16T08:14:29;1.20;;;1.20;;
10096;SDS011;5087;42.662;23.466;2023-05-16T08:16:58;1.10;;;1.10;;
10096;SDS011;5087;42.662;23.466;2023-05-16T08:19:26;1.30;;;1.30;;
10096;SDS011;5087;42.662;23.466;2023-05-16T08:21:53;0.90;;;0.90;;
10096;SDS011;5087;42.662;23.466;2023-05-16T08:24:20;1.03;;;1.03;;
10096;SDS011;5087;42.662;23.466;2023-05-16T08:26:48;1.10;;;1.10;;
10096;SDS011;5087;42.662;23.466;2023-05-16T08:29:15;1.17;;;1.17;;
10096;SDS011;5087;42.662;23.466;2023-05-16T08:31:42;1.10;;;1.10;;
10096;SDS011;5087;42.662;23.466;2023-05-16T08:34:11;1.47;;;1.47;;
10096;SDS011;5087;42.662;23.466;2023-05-16T08:36:38;1.50;;;1.50;;
10096;SDS011;5087;42.662;23.466;2023-05-16T08:39:05;1.60;;;1.60;;
10096;SDS011;5087;42.662;23.466;2023-05-16T08:41:35;2.43;;;2.37;;
10096;SDS011;5087;42.662;23.466;2023-05-16T08:44:03;1.70;;;1.70;;
10096;SDS011;5087;42.662;23.466;2023-05-16T08:46:31;1.60;;;1.60;;
10096;SDS011;5087;42.662;23.466;2023-05-16T08:49:03;1.80;;;1.80;;
10096;SDS011;5087;42.662;23.466;2023-05-16T08:51:33;2.00;;;2.00;;
10096;SDS011;5087;42.662;23.466;2023-05-16T08:54:03;6.93;;;6.53;;
10096;SDS011;5087;42.662;23.466;2023-05-16T08:56:36;2.63;;;2.63;;
10096;SDS011;5087;42.662;23.466;2023-05-16T08:59:04;2.20;;;2.20;;
10096;SDS011;5087;42.662;23.466;2023-05-16T09:01:32;2.20;;;2.20;;
10096;SDS011;5087;42.662;23.466;2023-05-16T09:04:00;2.17;;;2.17;;
10096;SDS011;5087;42.662;23.466;2023-05-16T09:06:29;3.07;;;3.07;;
10096;SDS011;5087;42.662;23.466;2023-05-16T09:08:57;2.30;;;2.30;;
10096;SDS011;5087;42.662;23.466;2023-05-16T09:11:25;2.20;;;2.20;;
10096;SDS011;5087;42.662;23.466;2023-05-16T09:13:55;6.67;;;6.23;;
10096;SDS011;5087;42.662;23.466;2023-05-16T09:16:22;3.07;;;2.97;;
10096;SDS011;5087;42.662;23.466;2023-05-16T09:18:52;2.50;;;2.50;;
10096;SDS011;5087;42.662;23.466;2023-05-16T09:21:21;2.80;;;2.80;;
10096;SDS011;5087;42.662;23.466;2023-05-16T09:23:49;3.00;;;3.00;;
10096;SDS011;5087;42.662;23.466;2023-05-16T09:26:20;3.90;;;3.80;;
10096;SDS011;5087;42.662;23.466;2023-05-16T09:28:50;3.13;;;3.13;;
10096;SDS011;5087;42.662;23.466;2023-05-16T09:31:19;3.10;;;3.10;;
10096;SDS011;5087;42.662;23.466;2023-05-16T09:33:47;3.20;;;3.10;;
10096;SDS011;5087;42.662;23.466;2023-05-16T09:36:15;2.50;;;2.50;;
10096;SDS011;5087;42.662;23.466;2023-05-16T09:38:42;2.43;;;2.43;;
10096;SDS011;5087;42.662;23.466;2023-05-16T09:41:10;3.60;;;3.57;;
10096;SDS011;5087;42.662;23.466;2023-05-16T09:43:39;3.73;;;3.63;;
10096;SDS011;5087;42.662;23.466;2023-05-16T09:46:07;3.10;;;3.10;;
10096;SDS011;5087;42.662;23.466;2023-05-16T09:48:39;3.30;;;3.30;;
10096;SDS011;5087;42.662;23.466;2023-05-16T09:51:07;2.93;;;2.93;;
10096;SDS011;5087;42.662;23.466;2023-05-16T09:53:34;2.50;;;2.50;;
10096;SDS011;5087;42.662;23.466;2023-05-16T09:56:04;2.80;;;2.80;;
10096;SDS011;5087;42.662;23.466;2023-05-16T09:58:33;3.00;;;3.00;;
10096;SDS011;5087;42.662;23.466;2023-05-16T10:01:03;4.53;;;4.30;;
10096;SDS011;5087;42.662;23.466;2023-05-16T10:03:32;2.83;;;2.83;;
10096;SDS011;5087;42.662;23.466;2023-05-16T10:06:00;2.60;;;2.60;;
10096;SDS011;5087;42.662;23.466;2023-05-16T10:08:30;3.30;;;3.30;;
10096;SDS011;5087;42.662;23.466;2023-05-16T10:11:01;3.50;;;3.50;;
10096;SDS011;5087;42.662;23.466;2023-05-16T10:13:30;3.00;;;3.00;;
10096;SDS011;5087;42.662;23.466;2023-05-16T10:16:05;3.50;;;3.50;;
10096;SDS011;5087;42.662;23.466;2023-05-16T10:18:37;3.00;;;3.00;;
10096;SDS011;5087;42.662;23.466;2023-05-16T10:21:06;3.37;;;3.37;;
10096;SDS011;5087;42.662;23.466;2023-05-16T10:23:36;4.67;;;4.57;;
10096;SDS011;5087;42.662;23.466;2023-05-16T10:26:06;3.40;;;3.40;;
10096;SDS011;5087;42.662;23.466;2023-05-16T10:28:35;3.40;;;3.30;;
10096;SDS011;5087;42.662;23.466;2023-05-16T10:31:03;2.90;;;2.90;;
10096;SDS011;5087;42.662;23.466;2023-05-16T10:33:32;3.73;;;3.67;;
10096;SDS011;5087;42.662;23.466;2023-05-16T10:36:01;4.10;;;4.00;;
10096;SDS011;5087;42.662;23.466;2023-05-16T10:38:30;2.80;;;2.80;;
10096;SDS011;5087;42.662;23.466;2023-05-16T10:40:58;3.10;;;3.10;;
10096;SDS011;5087;42.662;23.466;2023-05-16T10:43:26;3.40;;;3.40;;
10096;SDS011;5087;42.662;23.466;2023-05-16T10:45:55;3.27;;;3.17;;
10096;SDS011;5087;42.662;23.466;2023-05-16T10:48:29;3.10;;;3.10;;
10096;SDS011;5087;42.662;23.466;2023-05-16T10:50:59;4.03;;;3.93;;
10096;SDS011;5087;42.662;23.466;2023-05-16T10:53:29;3.40;;;3.40;;
10096;SDS011;5087;42.662;23.466;2023-05-16T10:56:07;3.50;;;3.50;;
10096;SDS011;5087;42.662;23.466;2023-05-16T10:58:46;4.20;;;4.10;;
10096;SDS011;5087;42.662;23.466;2023-05-16T11:01:14;4.03;;;3.93;;
10096;SDS011;5087;42.662;23.466;2023-05-16T11:06:42;4.07;;;3.97;;
10096;SDS011;5087;42.662;23.466;2023-05-16T11:09:19;4.77;;;4.60;;
10096;SDS011;5087;42.662;23.466;2023-05-16T11:11:52;3.90;;;3.90;;
10096;SDS011;5087;42.662;23.466;2023-05-16T11:14:21;4.80;;;4.70;;
10096;SDS011;5087;42.662;23.466;2023-05-16T11:16:49;4.23;;;4.13;;
10096;SDS011;5087;42.662;23.466;2023-05-16T11:19:27;5.33;;;5.23;;
10096;SDS011;5087;42.662;23.466;2023-05-16T11:24:51;4.90;;;4.70;;
10096;SDS011;5087;42.662;23.466;2023-05-16T11:27:20;4.60;;;4.50;;
10096;SDS011;5087;42.662;23.466;2023-05-16T11:29:49;6.20;;;5.73;;
10096;SDS011;5087;42.662;23.466;2023-05-16T11:32:21;5.00;;;4.90;;
10096;SDS011;5087;42.662;23.466;2023-05-16T11:34:49;4.70;;;4.60;;
10096;SDS011;5087;42.662;23.466;2023-05-16T11:37:19;4.65;;;4.55;;
10096;SDS011;5087;42.662;23.466;2023-05-16T11:39:48;4.60;;;4.50;;
10096;SDS011;5087;42.662;23.466;2023-05-16T11:42:19;4.80;;;4.70;;
10096;SDS011;5087;42.662;23.466;2023-05-16T11:44:46;5.00;;;4.90;;
10096;SDS011;5087;42.662;23.466;2023-05-16T11:47:13;5.17;;;5.07;;
10096;SDS011;5087;42.662;23.466;2023-05-16T11:49:41;5.00;;;4.90;;
10096;SDS011;5087;42.662;23.466;2023-05-16T11:52:08;4.83;;;4.73;;
10096;SDS011;5087;42.662;23.466;2023-05-16T11:54:36;4.83;;;4.73;;
10096;SDS011;5087;42.662;23.466;2023-05-16T11:57:05;4.90;;;4.80;;
10096;SDS011;5087;42.662;23.466;2023-05-16T11:59:32;4.70;;;4.60;;
10096;SDS011;5087;42.662;23.466;2023-05-16T12:02:02;5.00;;;4.90;;
10096;SDS011;5087;42.662;23.466;2023-05-16T12:04:30;4.80;;;4.70;;
10096;SDS011;5087;42.662;23.466;2023-05-16T12:06:58;4.63;;;4.53;;
10096;SDS011;5087;42.662;23.466;2023-05-16T12:09:26;4.50;;;4.40;;
10096;SDS011;5087;42.662;23.466;2023-05-16T12:11:54;4.50;;;4.40;;
10096;SDS011;5087;42.662;23.466;2023-05-16T12:14:23;4.80;;;4.70;;
10096;SDS011;5087;42.662;23.466;2023-05-16T12:16:51;6.20;;;6.00;;
10096;SDS011;5087;42.662;23.466;2023-05-16T12:19:19;4.80;;;4.70;;
10096;SDS011;5087;42.662;23.466;2023-05-16T12:21:50;4.70;;;4.60;;
10096;SDS011;5087;42.662;23.466;2023-05-16T12:24:21;4.83;;;4.73;;
10096;SDS011;5087;42.662;23.466;2023-05-16T12:26:55;5.30;;;5.20;;
10096;SDS011;5087;42.662;23.466;2023-05-16T12:29:24;5.63;;;5.50;;
10096;SDS011;5087;42.662;23.466;2023-05-16T12:31:52;4.70;;;4.60;;
10096;SDS011;5087;42.662;23.466;2023-05-16T12:34:19;4.70;;;4.60;;
10096;SDS011;5087;42.662;23.466;2023-05-16T12:36:49;5.23;;;5.13;;
10096;SDS011;5087;42.662;23.466;2023-05-16T12:39:19;5.10;;;5.00;;
10096;SDS011;5087;42.662;23.466;2023-05-16T12:41:47;4.93;;;4.83;;
10096;SDS011;5087;42.662;23.466;2023-05-16T12:44:15;4.20;;;4.10;;
10096;SDS011;5087;42.662;23.466;2023-05-16T12:46:45;5.33;;;5.13;;
10096;SDS011;5087;42.662;23.466;2023-05-16T12:49:18;4.80;;;4.70;;
10096;SDS011;5087;42.662;23.466;2023-05-16T12:51:49;5.33;;;5.23;;
10096;SDS011;5087;42.662;23.466;2023-05-16T12:54:18;4.10;;;4.00;;
10096;SDS011;5087;42.662;23.466;2023-05-16T12:56:47;5.07;;;4.87;;
10096;SDS011;5087;42.662;23.466;2023-05-16T12:59:14;4.00;;;3.90;;
10096;SDS011;5087;42.662;23.466;2023-05-16T13:01:41;4.30;;;4.20;;
10096;SDS011;5087;42.662;23.466;2023-05-16T13:04:11;7.20;;;6.80;;
10096;SDS011;5087;42.662;23.466;2023-05-16T13:06:43;4.30;;;4.20;;
10096;SDS011;5087;42.662;23.466;2023-05-16T13:09:10;4.30;;;4.20;;
10096;SDS011;5087;42.662;23.466;2023-05-16T13:11:38;5.97;;;5.60;;
10096;SDS011;5087;42.662;23.466;2023-05-16T13:14:05;4.60;;;4.50;;
10096;SDS011;5087;42.662;23.466;2023-05-16T13:16:32;5.13;;;4.83;;
10096;SDS011;5087;42.662;23.466;2023-05-16T13:18:59;4.63;;;4.53;;
10096;SDS011;5087;42.662;23.466;2023-05-16T13:21:28;4.50;;;4.40;;
10096;SDS011;5087;42.662;23.466;2023-05-16T13:23:56;4.30;;;4.20;;
10096;SDS011;5087;42.662;23.466;2023-05-16T13:26:23;4.40;;;4.30;;
10096;SDS011;5087;42.662;23.466;2023-05-16T13:28:54;4.70;;;4.60;;
10096;SDS011;5087;42.662;23.466;2023-05-16T13:31:26;4.77;;;4.67;;
10096;SDS011;5087;42.662;23.466;2023-05-16T13:33:53;4.97;;;4.87;;
10096;SDS011;5087;42.662;23.466;2023-05-16T13:36:21;4.77;;;4.67;;
10096;SDS011;5087;42.662;23.466;2023-05-16T13:38:49;7.67;;;6.53;;
10096;SDS011;5087;42.662;23.466;2023-05-16T13:41:17;5.73;;;5.53;;
10096;SDS011;5087;42.662;23.466;2023-05-16T13:43:45;5.60;;;5.43;;
10096;SDS011;5087;42.662;23.466;2023-05-16T13:46:12;4.60;;;4.50;;
10096;SDS011;5087;42.662;23.466;2023-05-16T13:48:39;4.70;;;4.60;;
10096;SDS011;5087;42.662;23.466;2023-05-16T13:51:06;4.70;;;4.60;;
10096;SDS011;5087;42.662;23.466;2023-05-16T13:53:35;4.30;;;4.20;;
10096;SDS011;5087;42.662;23.466;2023-05-16T13:56:05;3.70;;;3.70;;
10096;SDS011;5087;42.662;23.466;2023-05-16T13:58:32;5.13;;;5.03;;
10096;SDS011;5087;42.662;23.466;2023-05-16T14:00:59;4.30;;;4.20;;
10096;SDS011;5087;42.662;23.466;2023-05-16T14:03:26;4.20;;;4.10;;
10096;SDS011;5087;42.662;23.466;2023-05-16T14:05:57;4.93;;;4.83;;
10096;SDS011;5087;42.662;23.466;2023-05-16T14:08:24;4.33;;;4.23;;
10096;SDS011;5087;42.662;23.466;2023-05-16T14:10:54;4.70;;;4.60;;
10096;SDS011;5087;42.662;23.466;2023-05-16T14:13:23;4.40;;;4.30;;
10096;SDS011;5087;42.662;23.466;2023-05-16T14:15:50;3.90;;;3.90;;
10096;SDS011;5087;42.662;23.466;2023-05-16T14:18:20;4.40;;;4.30;;
10096;SDS011;5087;42.662;23.466;2023-05-16T14:20:48;5.37;;;5.27;;
10096;SDS011;5087;42.662;23.466;2023-05-16T14:23:18;4.80;;;4.70;;
10096;SDS011;5087;42.662;23.466;2023-05-16T14:25:45;4.20;;;4.10;;
10096;SDS011;5087;42.662;23.466;2023-05-16T14:28:13;4.20;;;4.10;;
10096;SDS011;5087;42.662;23.466;2023-05-16T14:30:41;5.47;;;5.37;;
10096;SDS011;5087;42.662;23.466;2023-05-16T14:33:11;4.20;;;4.10;;
10096;SDS011;5087;42.662;23.466;2023-05-16T14:35:39;3.70;;;3.70;;
10096;SDS011;5087;42.662;23.466;2023-05-16T14:38:06;3.90;;;3.90;;
10096;SDS011;5087;42.662;23.466;2023-05-16T14:40:34;4.30;;;4.20;;
10096;SDS011;5087;42.662;23.466;2023-05-16T14:43:01;4.47;;;4.37;;
10096;SDS011;5087;42.662;23.466;2023-05-16T14:45:29;4.10;;;4.00;;
10096;SDS011;5087;42.662;23.466;2023-05-16T14:47:58;4.10;;;4.00;;
10096;SDS011;5087;42.662;23.466;2023-05-16T14:50:25;4.20;;;4.10;;
10096;SDS011;5087;42.662;23.466;2023-05-16T14:52:56;4.93;;;4.83;;
10096;SDS011;5087;42.662;23.466;2023-05-16T14:55:23;5.40;;;5.30;;
10096;SDS011;5087;42.662;23.466;2023-05-16T14:57:59;4.47;;;4.37;;
10096;SDS011;5087;42.662;23.466;2023-05-16T15:00:26;5.80;;;5.70;;
10096;SDS011;5087;42.662;23.466;2023-05-16T15:02:54;5.43;;;5.33;;